sensor_id;sensor_type;location;lat;lon;timestamp;P1;durP1;ratioP1;P2;durP2;ratioP2
773;SDS011;370;48.810;9.150;2022-09-12T00:00:39;9.02;;;3.67;;
773;SDS011;370;48.810;9.150;2022-09-12T00:03:07;8.20;;;3.95;;
773;SDS011;370;48.810;9.150;2022-09-12T00:05:39;7.55;;;3.97;;
773;SDS011;370;48.810;9.150;2022-09-12T00:08:06;9.73;;;4.18;;
773;SDS011;370;48.810;9.150;2022-09-12T00:10:35;6.07;;;3.50;;
773;SDS011;370;48.810;9.150;2022-09-12T00:13:03;8.30;;;3.50;;
773;SDS011;370;48.810;9.150;2022-09-12T00:15:29;4.88;;;3.20;;
773;SDS011;370;48.810;9.150;2022-09-12T00:17:56;6.15;;;3.58;;
773;SDS011;370;48.810;9.150;2022-09-12T00:20:24;8.45;;;2.70;;
773;SDS011;370;48.810;9.150;2022-09-12T00:22:51;5.70;;;3.17;;
773;SDS011;370;48.810;9.150;2022-09-12T00:25:18;6.30;;;3.38;;
773;SDS011;370;48.810;9.150;2022-09-12T00:27:44;4.43;;;2.55;;
773;SDS011;370;48.810;9.150;2022-09-12T00:30:11;9.18;;;3.75;;
773;SDS011;370;48.810;9.150;2022-09-12T00:32:38;12.60;;;3.60;;
773;SDS011;370;48.810;9.150;2022-09-12T00:35:05;6.28;;;3.30;;
773;SDS011;370;48.810;9.150;2022-09-12T00:37:34;5.82;;;3.05;;
773;SDS011;370;48.810;9.150;2022-09-12T00:40:01;6.60;;;3.38;;
773;SDS011;370;48.810;9.150;2022-09-12T00:42:28;9.68;;;3.45;;
773;SDS011;370;48.810;9.150;2022-09-12T00:44:55;4.63;;;2.78;;
773;SDS011;370;48.810;9.150;2022-09-12T00:47:22;4.85;;;3.10;;
773;SDS011;370;48.810;9.150;2022-09-12T00:49:54;6.53;;;2.88;;
773;SDS011;370;48.810;9.150;2022-09-12T00:52:25;5.85;;;3.40;;
773;SDS011;370;48.810;9.150;2022-09-12T00:54:56;6.78;;;3.30;;
773;SDS011;370;48.810;9.150;2022-09-12T00:57:30;4.93;;;3.50;;
773;SDS011;370;48.810;9.150;2022-09-12T01:00:02;8.80;;;4.35;;
773;SDS011;370;48.810;9.150;2022-09-12T01:02:35;10.77;;;3.72;;
773;SDS011;370;48.810;9.150;2022-09-12T01:05:02;18.52;;;3.55;;
773;SDS011;370;48.810;9.150;2022-09-12T01:07:30;6.30;;;2.58;;
773;SDS011;370;48.810;9.150;2022-09-12T01:10:01;6.05;;;3.15;;
773;SDS011;370;48.810;9.150;2022-09-12T01:12:28;5.38;;;3.30;;
773;SDS011;370;48.810;9.150;2022-09-12T01:14:57;6.00;;;2.97;;
773;SDS011;370;48.810;9.150;2022-09-12T01:17:24;8.35;;;3.05;;
773;SDS011;370;48.810;9.150;2022-09-12T01:20:06;5.68;;;2.75;;
773;SDS011;370;48.810;9.150;2022-09-12T01:23:04;8.02;;;3.88;;
773;SDS011;370;48.810;9.150;2022-09-12T01:25:45;6.60;;;3.25;;
773;SDS011;370;48.810;9.150;2022-09-12T01:31:19;5.65;;;3.83;;
773;SDS011;370;48.810;9.150;2022-09-12T01:33:59;6.63;;;3.53;;
773;SDS011;370;48.810;9.150;2022-09-12T01:36:36;7.30;;;3.72;;
773;SDS011;370;48.810;9.150;2022-09-12T01:39:13;5.80;;;3.03;;
773;SDS011;370;48.810;9.150;2022-09-12T01:41:47;4.82;;;3.15;;
773;SDS011;370;48.810;9.150;2022-09-12T01:44:20;8.73;;;3.97;;
773;SDS011;370;48.810;9.150;2022-09-12T01:46:58;7.75;;;3.92;;
773;SDS011;370;48.810;9.150;2022-09-12T01:49:34;10.52;;;3.47;;
773;SDS011;370;48.810;9.150;2022-09-12T01:52:06;7.68;;;3.38;;
773;SDS011;370;48.810;9.150;2022-09-12T01:54:37;6.00;;;3.05;;
773;SDS011;370;48.810;9.150;2022-09-12T01:57:09;7.05;;;3.70;;
773;SDS011;370;48.810;9.150;2022-09-12T01:59:39;6.35;;;3.78;;
773;SDS011;370;48.810;9.150;2022-09-12T02:02:13;8.88;;;3.40;;
773;SDS011;370;48.810;9.150;2022-09-12T02:04:43;12.02;;;4.00;;
773;SDS011;370;48.810;9.150;2022-09-12T02:07:17;4.70;;;2.90;;
773;SDS011;370;48.810;9.150;2022-09-12T02:09:46;7.43;;;3.30;;
773;SDS011;370;48.810;9.150;2022-09-12T02:12:19;6.40;;;3.50;;
773;SDS011;370;48.810;9.150;2022-09-12T02:14:50;9.95;;;4.68;;
773;SDS011;370;48.810;9.150;2022-09-12T02:17:24;7.07;;;3.90;;
773;SDS011;370;48.810;9.150;2022-09-12T02:19:53;7.00;;;3.70;;
773;SDS011;370;48.810;9.150;2022-09-12T02:22:24;10.10;;;4.82;;
773;SDS011;370;48.810;9.150;2022-09-12T02:24:54;7.70;;;3.78;;
773;SDS011;370;48.810;9.150;2022-09-12T02:27:25;7.00;;;3.53;;
773;SDS011;370;48.810;9.150;2022-09-12T02:29:55;8.90;;;4.50;;
773;SDS011;370;48.810;9.150;2022-09-12T02:32:26;7.22;;;4.28;;
773;SDS011;370;48.810;9.150;2022-09-12T02:34:58;9.63;;;4.28;;
773;SDS011;370;48.810;9.150;2022-09-12T02:37:32;10.25;;;3.78;;
773;SDS011;370;48.810;9.150;2022-09-12T02:40:12;7.70;;;3.88;;
773;SDS011;370;48.810;9.150;2022-09-12T02:42:40;8.70;;;4.95;;
773;SDS011;370;48.810;9.150;2022-09-12T02:45:07;5.13;;;3.20;;
773;SDS011;370;48.810;9.150;2022-09-12T02:47:38;8.88;;;3.83;;
773;SDS011;370;48.810;9.150;2022-09-12T02:50:10;6.95;;;3.45;;
773;SDS011;370;48.810;9.150;2022-09-12T02:52:38;7.45;;;4.10;;
773;SDS011;370;48.810;9.150;2022-09-12T02:55:06;8.23;;;3.85;;
773;SDS011;370;48.810;9.150;2022-09-12T02:57:35;7.03;;;3.40;;
773;SDS011;370;48.810;9.150;2022-09-12T03:00:02;7.28;;;3.92;;
773;SDS011;370;48.810;9.150;2022-09-12T03:02:32;6.10;;;4.05;;
773;SDS011;370;48.810;9.150;2022-09-12T03:05:13;4.97;;;3.80;;
773;SDS011;370;48.810;9.150;2022-09-12T03:07:56;6.45;;;3.30;;
773;SDS011;370;48.810;9.150;2022-09-12T03:10:49;6.18;;;3.42;;
773;SDS011;370;48.810;9.150;2022-09-12T03:13:35;13.18;;;3.28;;
773;SDS011;370;48.810;9.150;2022-09-12T03:16:10;8.02;;;3.70;;
773;SDS011;370;48.810;9.150;2022-09-12T03:18:45;6.20;;;3.40;;
773;SDS011;370;48.810;9.150;2022-09-12T03:21:20;5.97;;;3.47;;
773;SDS011;370;48.810;9.150;2022-09-12T03:23:56;6.03;;;3.83;;
773;SDS011;370;48.810;9.150;2022-09-12T03:26:31;10.40;;;3.70;;
773;SDS011;370;48.810;9.150;2022-09-12T03:29:03;8.90;;;3.85;;
773;SDS011;370;48.810;9.150;2022-09-12T03:31:32;10.15;;;4.10;;
773;SDS011;370;48.810;9.150;2022-09-12T03:34:00;8.10;;;3.90;;
773;SDS011;370;48.810;9.150;2022-09-12T03:36:28;6.75;;;3.67;;
773;SDS011;370;48.810;9.150;2022-09-12T03:38:55;13.57;;;3.50;;
773;SDS011;370;48.810;9.150;2022-09-12T03:41:22;4.97;;;3.22;;
773;SDS011;370;48.810;9.150;2022-09-12T03:43:49;10.15;;;4.55;;
773;SDS011;370;48.810;9.150;2022-09-12T03:46:16;6.70;;;3.90;;
773;SDS011;370;48.810;9.150;2022-09-12T03:48:43;12.10;;;6.00;;
773;SDS011;370;48.810;9.150;2022-09-12T03:51:11;8.05;;;4.68;;
773;SDS011;370;48.810;9.150;2022-09-12T03:53:38;11.50;;;3.95;;
773;SDS011;370;48.810;9.150;2022-09-12T03:56:05;5.03;;;3.25;;
773;SDS011;370;48.810;9.150;2022-09-12T03:58:33;8.45;;;3.58;;
773;SDS011;370;48.810;9.150;2022-09-12T04:01:05;10.30;;;4.07;;
773;SDS011;370;48.810;9.150;2022-09-12T04:03:36;12.40;;;4.18;;
773;SDS011;370;48.810;9.150;2022-09-12T04:06:03;9.48;;;4.45;;
773;SDS011;370;48.810;9.150;2022-09-12T04:08:31;9.43;;;5.00;;
773;SDS011;370;48.810;9.150;2022-09-12T04:11:01;9.02;;;4.55;;
773;SDS011;370;48.810;9.150;2022-09-12T04:13:28;8.23;;;4.50;;
773;SDS011;370;48.810;9.150;2022-09-12T04:15:55;8.18;;;3.80;;
773;SDS011;370;48.810;9.150;2022-09-12T04:18:22;8.35;;;4.47;;
773;SDS011;370;48.810;9.150;2022-09-12T04:20:48;11.43;;;4.90;;
773;SDS011;370;48.810;9.150;2022-09-12T04:23:15;8.45;;;3.85;;
773;SDS011;370;48.810;9.150;2022-09-12T04:25:43;11.15;;;5.43;;
773;SDS011;370;48.810;9.150;2022-09-12T04:28:17;11.15;;;6.60;;
773;SDS011;370;48.810;9.150;2022-09-12T04:30:44;10.40;;;4.82;;
773;SDS011;370;48.810;9.150;2022-09-12T04:33:11;9.45;;;4.45;;
773;SDS011;370;48.810;9.150;2022-09-12T04:35:38;11.05;;;3.90;;
773;SDS011;370;48.810;9.150;2022-09-12T04:38:05;11.00;;;4.38;;
773;SDS011;370;48.810;9.150;2022-09-12T04:40:32;16.48;;;4.43;;
773;SDS011;370;48.810;9.150;2022-09-12T04:43:00;6.85;;;4.70;;
773;SDS011;370;48.810;9.150;2022-09-12T04:45:27;6.85;;;3.70;;
773;SDS011;370;48.810;9.150;2022-09-12T04:47:53;10.95;;;4.30;;
773;SDS011;370;48.810;9.150;2022-09-12T04:50:20;5.80;;;3.88;;
773;SDS011;370;48.810;9.150;2022-09-12T04:52:48;13.82;;;4.03;;
773;SDS011;370;48.810;9.150;2022-09-12T04:55:15;6.88;;;3.50;;
773;SDS011;370;48.810;9.150;2022-09-12T04:57:42;15.43;;;3.65;;
773;SDS011;370;48.810;9.150;2022-09-12T05:00:11;9.25;;;4.40;;
773;SDS011;370;48.810;9.150;2022-09-12T05:02:38;7.93;;;3.75;;
773;SDS011;370;48.810;9.150;2022-09-12T05:05:05;7.60;;;4.50;;
773;SDS011;370;48.810;9.150;2022-09-12T05:07:33;7.38;;;3.85;;
773;SDS011;370;48.810;9.150;2022-09-12T05:10:00;8.60;;;3.85;;
773;SDS011;370;48.810;9.150;2022-09-12T05:12:28;10.27;;;3.85;;
773;SDS011;370;48.810;9.150;2022-09-12T05:14:55;9.05;;;3.28;;
773;SDS011;370;48.810;9.150;2022-09-12T05:17:23;7.40;;;3.85;;
773;SDS011;370;48.810;9.150;2022-09-12T05:19:50;10.05;;;4.20;;
773;SDS011;370;48.810;9.150;2022-09-12T05:22:19;8.98;;;5.05;;
773;SDS011;370;48.810;9.150;2022-09-12T05:24:54;9.55;;;4.38;;
773;SDS011;370;48.810;9.150;2022-09-12T05:27:21;10.98;;;5.22;;
773;SDS011;370;48.810;9.150;2022-09-12T05:29:47;8.70;;;5.43;;
773;SDS011;370;48.810;9.150;2022-09-12T05:32:14;6.78;;;4.05;;
773;SDS011;370;48.810;9.150;2022-09-12T05:34:42;11.60;;;4.65;;
773;SDS011;370;48.810;9.150;2022-09-12T05:37:09;9.75;;;4.63;;
773;SDS011;370;48.810;9.150;2022-09-12T05:39:37;15.55;;;4.78;;
773;SDS011;370;48.810;9.150;2022-09-12T05:42:04;10.50;;;3.50;;
773;SDS011;370;48.810;9.150;2022-09-12T05:44:31;8.23;;;4.30;;
773;SDS011;370;48.810;9.150;2022-09-12T05:46:58;7.22;;;3.95;;
773;SDS011;370;48.810;9.150;2022-09-12T05:49:24;12.63;;;4.97;;
773;SDS011;370;48.810;9.150;2022-09-12T05:51:52;8.77;;;3.65;;
773;SDS011;370;48.810;9.150;2022-09-12T05:54:19;6.53;;;3.90;;
773;SDS011;370;48.810;9.150;2022-09-12T05:56:46;9.02;;;4.15;;
773;SDS011;370;48.810;9.150;2022-09-12T05:59:14;9.27;;;4.28;;
773;SDS011;370;48.810;9.150;2022-09-12T06:01:42;8.23;;;5.00;;
773;SDS011;370;48.810;9.150;2022-09-12T06:04:10;9.27;;;4.70;;
773;SDS011;370;48.810;9.150;2022-09-12T06:06:37;13.57;;;5.25;;
773;SDS011;370;48.810;9.150;2022-09-12T06:09:08;22.20;;;6.30;;
773;SDS011;370;48.810;9.150;2022-09-12T06:11:35;10.13;;;5.50;;
773;SDS011;370;48.810;9.150;2022-09-12T06:14:05;16.05;;;6.22;;
773;SDS011;370;48.810;9.150;2022-09-12T06:16:33;14.98;;;6.00;;
773;SDS011;370;48.810;9.150;2022-09-12T06:19:01;18.65;;;6.57;;
773;SDS011;370;48.810;9.150;2022-09-12T06:21:30;16.92;;;8.90;;
773;SDS011;370;48.810;9.150;2022-09-12T06:23:58;17.43;;;6.77;;
773;SDS011;370;48.810;9.150;2022-09-12T06:26:26;8.85;;;5.47;;
773;SDS011;370;48.810;9.150;2022-09-12T06:28:54;18.10;;;5.53;;
773;SDS011;370;48.810;9.150;2022-09-12T06:31:23;16.83;;;6.63;;
773;SDS011;370;48.810;9.150;2022-09-12T06:33:52;20.30;;;6.55;;
773;SDS011;370;48.810;9.150;2022-09-12T06:36:20;13.27;;;6.00;;
773;SDS011;370;48.810;9.150;2022-09-12T06:38:52;14.00;;;5.23;;
773;SDS011;370;48.810;9.150;2022-09-12T06:41:20;19.07;;;5.50;;
773;SDS011;370;48.810;9.150;2022-09-12T06:43:48;13.83;;;6.93;;
773;SDS011;370;48.810;9.150;2022-09-12T06:46:15;11.80;;;5.63;;
773;SDS011;370;48.810;9.150;2022-09-12T06:48:42;15.40;;;5.67;;
773;SDS011;370;48.810;9.150;2022-09-12T06:51:10;11.57;;;5.57;;
773;SDS011;370;48.810;9.150;2022-09-12T06:53:39;12.13;;;6.30;;
773;SDS011;370;48.810;9.150;2022-09-12T06:56:06;15.13;;;6.27;;
773;SDS011;370;48.810;9.150;2022-09-12T06:58:38;14.10;;;6.10;;
773;SDS011;370;48.810;9.150;2022-09-12T07:01:07;10.95;;;6.20;;
773;SDS011;370;48.810;9.150;2022-09-12T07:03:36;11.20;;;6.60;;
773;SDS011;370;48.810;9.150;2022-09-12T07:06:04;9.20;;;6.00;;
773;SDS011;370;48.810;9.150;2022-09-12T07:08:32;10.73;;;5.90;;
773;SDS011;370;48.810;9.150;2022-09-12T07:11:07;7.50;;;5.17;;
773;SDS011;370;48.810;9.150;2022-09-12T07:13:35;7.53;;;5.20;;
773;SDS011;370;48.810;9.150;2022-09-12T07:16:02;9.73;;;5.40;;
773;SDS011;370;48.810;9.150;2022-09-12T07:18:33;11.17;;;5.80;;
773;SDS011;370;48.810;9.150;2022-09-12T07:21:03;11.07;;;5.00;;
773;SDS011;370;48.810;9.150;2022-09-12T07:23:32;12.83;;;5.80;;
773;SDS011;370;48.810;9.150;2022-09-12T07:25:59;11.20;;;5.83;;
773;SDS011;370;48.810;9.150;2022-09-12T07:28:27;8.15;;;5.00;;
773;SDS011;370;48.810;9.150;2022-09-12T07:31:05;8.67;;;5.23;;
773;SDS011;370;48.810;9.150;2022-09-12T07:33:35;8.50;;;5.18;;
773;SDS011;370;48.810;9.150;2022-09-12T07:36:05;9.07;;;5.27;;
773;SDS011;370;48.810;9.150;2022-09-12T07:38:34;8.70;;;5.00;;
773;SDS011;370;48.810;9.150;2022-09-12T07:41:08;9.47;;;5.40;;
773;SDS011;370;48.810;9.150;2022-09-12T07:43:37;8.27;;;4.57;;
773;SDS011;370;48.810;9.150;2022-09-12T07:48:42;5.60;;;3.93;;
773;SDS011;370;48.810;9.150;2022-09-12T07:51:10;7.37;;;4.43;;
773;SDS011;370;48.810;9.150;2022-09-12T07:53:37;6.67;;;4.13;;
773;SDS011;370;48.810;9.150;2022-09-12T07:56:07;9.73;;;4.80;;
773;SDS011;370;48.810;9.150;2022-09-12T07:58:36;7.50;;;5.03;;
773;SDS011;370;48.810;9.150;2022-09-12T08:01:04;8.60;;;5.67;;
773;SDS011;370;48.810;9.150;2022-09-12T08:03:33;6.67;;;4.90;;
773;SDS011;370;48.810;9.150;2022-09-12T08:06:08;7.30;;;5.23;;
773;SDS011;370;48.810;9.150;2022-09-12T08:08:35;11.00;;;5.60;;
773;SDS011;370;48.810;9.150;2022-09-12T08:11:04;9.43;;;6.13;;
773;SDS011;370;48.810;9.150;2022-09-12T08:13:32;10.93;;;5.73;;
773;SDS011;370;48.810;9.150;2022-09-12T08:16:00;8.50;;;4.90;;
773;SDS011;370;48.810;9.150;2022-09-12T08:18:30;12.03;;;5.67;;
773;SDS011;370;48.810;9.150;2022-09-12T08:20:57;8.80;;;5.10;;
773;SDS011;370;48.810;9.150;2022-09-12T08:23:27;12.43;;;6.00;;
773;SDS011;370;48.810;9.150;2022-09-12T08:25:54;8.03;;;5.40;;
773;SDS011;370;48.810;9.150;2022-09-12T08:28:21;6.97;;;5.30;;
773;SDS011;370;48.810;9.150;2022-09-12T08:30:48;7.17;;;5.00;;
773;SDS011;370;48.810;9.150;2022-09-12T08:33:15;8.57;;;4.80;;
773;SDS011;370;48.810;9.150;2022-09-12T08:35:42;8.80;;;4.97;;
773;SDS011;370;48.810;9.150;2022-09-12T08:38:09;12.43;;;5.80;;
773;SDS011;370;48.810;9.150;2022-09-12T08:40:41;7.47;;;5.30;;
773;SDS011;370;48.810;9.150;2022-09-12T08:43:17;7.50;;;5.23;;
773;SDS011;370;48.810;9.150;2022-09-12T08:45:59;7.47;;;5.43;;
773;SDS011;370;48.810;9.150;2022-09-12T08:48:30;6.13;;;4.60;;
773;SDS011;370;48.810;9.150;2022-09-12T08:50:57;7.30;;;4.50;;
773;SDS011;370;48.810;9.150;2022-09-12T08:53:25;7.70;;;4.70;;
773;SDS011;370;48.810;9.150;2022-09-12T08:55:56;5.13;;;4.30;;
773;SDS011;370;48.810;9.150;2022-09-12T08:58:25;5.37;;;3.90;;
773;SDS011;370;48.810;9.150;2022-09-12T09:00:56;6.97;;;4.00;;
773;SDS011;370;48.810;9.150;2022-09-12T09:06:24;3.40;;;3.20;;
773;SDS011;370;48.810;9.150;2022-09-12T09:09:07;5.23;;;3.83;;
773;SDS011;370;48.810;9.150;2022-09-12T09:11:42;5.70;;;3.70;;
773;SDS011;370;48.810;9.150;2022-09-12T09:14:23;5.63;;;4.10;;
773;SDS011;370;48.810;9.150;2022-09-12T09:17:19;4.40;;;4.03;;
773;SDS011;370;48.810;9.150;2022-09-12T09:19:51;5.40;;;3.90;;
773;SDS011;370;48.810;9.150;2022-09-12T09:22:27;6.00;;;4.60;;
773;SDS011;370;48.810;9.150;2022-09-12T09:25:05;9.40;;;6.40;;
773;SDS011;370;48.810;9.150;2022-09-12T09:27:42;12.17;;;9.37;;
773;SDS011;370;48.810;9.150;2022-09-12T09:30:15;8.50;;;4.80;;
773;SDS011;370;48.810;9.150;2022-09-12T09:32:43;7.50;;;5.10;;
773;SDS011;370;48.810;9.150;2022-09-12T09:35:16;3.90;;;3.47;;
773;SDS011;370;48.810;9.150;2022-09-12T09:37:52;5.40;;;5.17;;
773;SDS011;370;48.810;9.150;2022-09-12T09:40:28;10.37;;;5.27;;
773;SDS011;370;48.810;9.150;2022-09-12T09:43:09;4.87;;;4.57;;
773;SDS011;370;48.810;9.150;2022-09-12T09:45:44;3.60;;;3.40;;
773;SDS011;370;48.810;9.150;2022-09-12T09:48:14;5.70;;;3.30;;
773;SDS011;370;48.810;9.150;2022-09-12T09:50:43;5.10;;;3.53;;
773;SDS011;370;48.810;9.150;2022-09-12T09:53:23;8.20;;;3.90;;
773;SDS011;370;48.810;9.150;2022-09-12T09:56:05;3.20;;;3.00;;
773;SDS011;370;48.810;9.150;2022-09-12T09:58:38;3.50;;;2.80;;
773;SDS011;370;48.810;9.150;2022-09-12T10:01:11;3.77;;;3.17;;
773;SDS011;370;48.810;9.150;2022-09-12T10:03:45;3.07;;;2.87;;
773;SDS011;370;48.810;9.150;2022-09-12T10:06:21;3.10;;;2.90;;
773;SDS011;370;48.810;9.150;2022-09-12T10:09:03;3.50;;;3.00;;
773;SDS011;370;48.810;9.150;2022-09-12T10:11:33;3.77;;;3.57;;
773;SDS011;370;48.810;9.150;2022-09-12T10:14:01;3.90;;;3.70;;
773;SDS011;370;48.810;9.150;2022-09-12T10:16:29;4.93;;;3.73;;
773;SDS011;370;48.810;9.150;2022-09-12T10:18:58;3.97;;;3.77;;
773;SDS011;370;48.810;9.150;2022-09-12T10:21:27;3.60;;;3.40;;
773;SDS011;370;48.810;9.150;2022-09-12T10:23:58;4.40;;;4.10;;
773;SDS011;370;48.810;9.150;2022-09-12T10:26:31;3.60;;;3.40;;
773;SDS011;370;48.810;9.150;2022-09-12T10:29:03;3.70;;;3.50;;
773;SDS011;370;48.810;9.150;2022-09-12T10:31:42;8.50;;;3.90;;
773;SDS011;370;48.810;9.150;2022-09-12T10:34:19;7.50;;;3.57;;
773;SDS011;370;48.810;9.150;2022-09-12T10:36:51;4.67;;;4.30;;
773;SDS011;370;48.810;9.150;2022-09-12T10:39:20;3.40;;;3.20;;
773;SDS011;370;48.810;9.150;2022-09-12T10:41:47;3.30;;;3.10;;
773;SDS011;370;48.810;9.150;2022-09-12T10:44:16;3.67;;;3.37;;
773;SDS011;370;48.810;9.150;2022-09-12T10:46:50;3.73;;;3.53;;
773;SDS011;370;48.810;9.150;2022-09-12T10:49:21;3.40;;;3.20;;
773;SDS011;370;48.810;9.150;2022-09-12T10:51:53;3.20;;;3.00;;
773;SDS011;370;48.810;9.150;2022-09-12T10:54:24;3.10;;;2.90;;
773;SDS011;370;48.810;9.150;2022-09-12T10:57:11;3.30;;;2.73;;
773;SDS011;370;48.810;9.150;2022-09-12T10:59:57;3.43;;;3.23;;
773;SDS011;370;48.810;9.150;2022-09-12T11:02:34;3.40;;;3.20;;
773;SDS011;370;48.810;9.150;2022-09-12T11:05:10;4.60;;;3.57;;
773;SDS011;370;48.810;9.150;2022-09-12T11:07:44;3.50;;;3.30;;
773;SDS011;370;48.810;9.150;2022-09-12T11:10:16;3.47;;;3.20;;
773;SDS011;370;48.810;9.150;2022-09-12T11:12:56;3.77;;;3.57;;
773;SDS011;370;48.810;9.150;2022-09-12T11:15:39;3.73;;;3.53;;
773;SDS011;370;48.810;9.150;2022-09-12T11:18:27;4.00;;;3.80;;
773;SDS011;370;48.810;9.150;2022-09-12T11:21:13;4.13;;;3.53;;
773;SDS011;370;48.810;9.150;2022-09-12T11:24:01;3.50;;;3.30;;
773;SDS011;370;48.810;9.150;2022-09-12T11:26:38;4.33;;;4.03;;
773;SDS011;370;48.810;9.150;2022-09-12T11:29:12;3.60;;;3.40;;
773;SDS011;370;48.810;9.150;2022-09-12T11:34:49;3.95;;;3.75;;
773;SDS011;370;48.810;9.150;2022-09-12T11:37:27;4.13;;;3.90;;
773;SDS011;370;48.810;9.150;2022-09-12T11:40:15;3.47;;;3.27;;
773;SDS011;370;48.810;9.150;2022-09-12T11:42:54;6.10;;;3.10;;
773;SDS011;370;48.810;9.150;2022-09-12T11:45:25;3.20;;;3.00;;
773;SDS011;370;48.810;9.150;2022-09-12T11:47:56;3.20;;;3.00;;
773;SDS011;370;48.810;9.150;2022-09-12T11:50:30;2.60;;;2.40;;
773;SDS011;370;48.810;9.150;2022-09-12T11:52:59;3.33;;;3.10;;
773;SDS011;370;48.810;9.150;2022-09-12T11:55:40;2.70;;;2.50;;
773;SDS011;370;48.810;9.150;2022-09-12T11:58:12;2.80;;;2.60;;
773;SDS011;370;48.810;9.150;2022-09-12T12:00:40;2.80;;;2.60;;
773;SDS011;370;48.810;9.150;2022-09-12T12:03:12;2.87;;;2.70;;
773;SDS011;370;48.810;9.150;2022-09-12T12:05:48;2.63;;;2.43;;
773;SDS011;370;48.810;9.150;2022-09-12T12:08:19;2.83;;;2.63;;
773;SDS011;370;48.810;9.150;2022-09-12T12:10:47;2.77;;;2.57;;
773;SDS011;370;48.810;9.150;2022-09-12T12:13:18;2.50;;;2.30;;
773;SDS011;370;48.810;9.150;2022-09-12T12:15:48;4.33;;;3.20;;
773;SDS011;370;48.810;9.150;2022-09-12T12:18:19;3.30;;;3.10;;
773;SDS011;370;48.810;9.150;2022-09-12T12:20:50;2.87;;;2.67;;
773;SDS011;370;48.810;9.150;2022-09-12T12:23:21;2.47;;;2.28;;
773;SDS011;370;48.810;9.150;2022-09-12T12:25:50;2.47;;;2.30;;
773;SDS011;370;48.810;9.150;2022-09-12T12:31:24;2.53;;;2.33;;
773;SDS011;370;48.810;9.150;2022-09-12T12:33:51;4.03;;;2.57;;
773;SDS011;370;48.810;9.150;2022-09-12T12:48:33;2.30;;;2.10;;
773;SDS011;370;48.810;9.150;2022-09-12T12:54:31;2.13;;;1.97;;
773;SDS011;370;48.810;9.150;2022-09-12T12:57:16;2.53;;;2.33;;
773;SDS011;370;48.810;9.150;2022-09-12T12:59:59;2.40;;;2.20;;
773;SDS011;370;48.810;9.150;2022-09-12T13:02:31;2.60;;;2.40;;
773;SDS011;370;48.810;9.150;2022-09-12T13:05:02;2.77;;;2.57;;
773;SDS011;370;48.810;9.150;2022-09-12T13:07:32;2.80;;;2.60;;
773;SDS011;370;48.810;9.150;2022-09-12T13:10:05;2.90;;;2.80;;
773;SDS011;370;48.810;9.150;2022-09-12T13:12:33;2.80;;;2.60;;
773;SDS011;370;48.810;9.150;2022-09-12T13:15:03;3.10;;;2.90;;
773;SDS011;370;48.810;9.150;2022-09-12T13:17:51;3.00;;;2.80;;
773;SDS011;370;48.810;9.150;2022-09-12T13:20:20;3.10;;;2.90;;
773;SDS011;370;48.810;9.150;2022-09-12T13:22:50;2.90;;;2.70;;
773;SDS011;370;48.810;9.150;2022-09-12T13:25:20;4.93;;;2.60;;
773;SDS011;370;48.810;9.150;2022-09-12T13:27:59;2.80;;;2.60;;
773;SDS011;370;48.810;9.150;2022-09-12T13:30:29;2.90;;;2.70;;
773;SDS011;370;48.810;9.150;2022-09-12T13:33:07;5.23;;;3.17;;
773;SDS011;370;48.810;9.150;2022-09-12T13:35:43;3.33;;;3.13;;
773;SDS011;370;48.810;9.150;2022-09-12T13:38:27;2.93;;;2.73;;
773;SDS011;370;48.810;9.150;2022-09-12T13:41:12;2.83;;;2.50;;
773;SDS011;370;48.810;9.150;2022-09-12T13:43:48;2.50;;;2.30;;
773;SDS011;370;48.810;9.150;2022-09-12T13:46:16;2.43;;;2.23;;
773;SDS011;370;48.810;9.150;2022-09-12T13:48:45;2.67;;;2.47;;
773;SDS011;370;48.810;9.150;2022-09-12T13:51:18;2.60;;;2.40;;
773;SDS011;370;48.810;9.150;2022-09-12T13:53:49;3.90;;;2.80;;
773;SDS011;370;48.810;9.150;2022-09-12T13:56:19;2.88;;;2.67;;
773;SDS011;370;48.810;9.150;2022-09-12T13:58:52;4.10;;;3.23;;
773;SDS011;370;48.810;9.150;2022-09-12T14:01:21;2.60;;;2.40;;
773;SDS011;370;48.810;9.150;2022-09-12T14:03:49;2.90;;;2.70;;
773;SDS011;370;48.810;9.150;2022-09-12T14:06:35;2.83;;;2.40;;
773;SDS011;370;48.810;9.150;2022-09-12T14:09:11;2.80;;;2.60;;
773;SDS011;370;48.810;9.150;2022-09-12T14:11:40;2.50;;;2.30;;
773;SDS011;370;48.810;9.150;2022-09-12T14:14:13;2.63;;;2.43;;
773;SDS011;370;48.810;9.150;2022-09-12T14:16:46;2.20;;;2.00;;
773;SDS011;370;48.810;9.150;2022-09-12T14:19:14;1.90;;;1.80;;
773;SDS011;370;48.810;9.150;2022-09-12T14:21:43;2.13;;;1.97;;
773;SDS011;370;48.810;9.150;2022-09-12T14:24:10;4.43;;;2.03;;
773;SDS011;370;48.810;9.150;2022-09-12T14:26:38;1.87;;;1.77;;
773;SDS011;370;48.810;9.150;2022-09-12T14:29:11;2.23;;;1.90;;
773;SDS011;370;48.810;9.150;2022-09-12T14:31:40;2.17;;;1.97;;
773;SDS011;370;48.810;9.150;2022-09-12T14:34:09;2.07;;;1.93;;
773;SDS011;370;48.810;9.150;2022-09-12T14:36:39;1.97;;;1.87;;
773;SDS011;370;48.810;9.150;2022-09-12T14:39:15;2.27;;;2.10;;
773;SDS011;370;48.810;9.150;2022-09-12T14:41:47;2.27;;;2.00;;
773;SDS011;370;48.810;9.150;2022-09-12T14:44:15;1.90;;;1.80;;
773;SDS011;370;48.810;9.150;2022-09-12T14:46:44;2.00;;;1.90;;
773;SDS011;370;48.810;9.150;2022-09-12T14:49:17;1.90;;;1.80;;
773;SDS011;370;48.810;9.150;2022-09-12T14:51:55;1.80;;;1.70;;
773;SDS011;370;48.810;9.150;2022-09-12T14:54:33;1.73;;;1.63;;
773;SDS011;370;48.810;9.150;2022-09-12T14:57:05;2.30;;;2.10;;
773;SDS011;370;48.810;9.150;2022-09-12T14:59:52;2.47;;;2.10;;
773;SDS011;370;48.810;9.150;2022-09-12T15:02:30;2.70;;;2.17;;
773;SDS011;370;48.810;9.150;2022-09-12T15:07:56;2.13;;;1.97;;
773;SDS011;370;48.810;9.150;2022-09-12T15:10:26;1.90;;;1.80;;
773;SDS011;370;48.810;9.150;2022-09-12T15:15:50;1.90;;;1.80;;
773;SDS011;370;48.810;9.150;2022-09-12T15:18:19;2.20;;;2.00;;
773;SDS011;370;48.810;9.150;2022-09-12T15:20:47;1.83;;;1.73;;
773;SDS011;370;48.810;9.150;2022-09-12T15:23:17;2.30;;;2.10;;
773;SDS011;370;48.810;9.150;2022-09-12T15:25:55;2.20;;;2.00;;
773;SDS011;370;48.810;9.150;2022-09-12T15:28:23;3.17;;;2.20;;
773;SDS011;370;48.810;9.150;2022-09-12T15:30:53;1.90;;;1.80;;
773;SDS011;370;48.810;9.150;2022-09-12T15:33:22;1.90;;;1.80;;
773;SDS011;370;48.810;9.150;2022-09-12T15:35:50;2.20;;;1.87;;
773;SDS011;370;48.810;9.150;2022-09-12T15:38:18;2.27;;;2.00;;
773;SDS011;370;48.810;9.150;2022-09-12T15:40:48;4.37;;;1.77;;
773;SDS011;370;48.810;9.150;2022-09-12T15:43:15;1.93;;;1.83;;
773;SDS011;370;48.810;9.150;2022-09-12T15:45:43;1.70;;;1.63;;
773;SDS011;370;48.810;9.150;2022-09-12T15:48:10;1.90;;;1.80;;
773;SDS011;370;48.810;9.150;2022-09-12T15:50:37;2.03;;;1.77;;
773;SDS011;370;48.810;9.150;2022-09-12T15:53:07;1.50;;;1.40;;
773;SDS011;370;48.810;9.150;2022-09-12T15:55:38;1.87;;;1.77;;
773;SDS011;370;48.810;9.150;2022-09-12T15:58:05;1.97;;;1.70;;
773;SDS011;370;48.810;9.150;2022-09-12T16:00:33;2.30;;;2.10;;
773;SDS011;370;48.810;9.150;2022-09-12T16:03:01;2.50;;;1.90;;
773;SDS011;370;48.810;9.150;2022-09-12T16:05:28;1.77;;;1.67;;
773;SDS011;370;48.810;9.150;2022-09-12T16:07:55;1.60;;;1.50;;
773;SDS011;370;48.810;9.150;2022-09-12T16:10:23;1.70;;;1.60;;
773;SDS011;370;48.810;9.150;2022-09-12T16:12:52;2.00;;;1.90;;
773;SDS011;370;48.810;9.150;2022-09-12T16:15:20;4.43;;;1.80;;
773;SDS011;370;48.810;9.150;2022-09-12T16:17:48;1.80;;;1.70;;
773;SDS011;370;48.810;9.150;2022-09-12T16:20:17;2.07;;;1.93;;
773;SDS011;370;48.810;9.150;2022-09-12T16:22:45;3.77;;;1.83;;
773;SDS011;370;48.810;9.150;2022-09-12T16:25:12;1.87;;;1.77;;
773;SDS011;370;48.810;9.150;2022-09-12T16:27:41;2.90;;;1.97;;
773;SDS011;370;48.810;9.150;2022-09-12T16:30:08;1.50;;;1.40;;
773;SDS011;370;48.810;9.150;2022-09-12T16:32:36;2.40;;;1.80;;
773;SDS011;370;48.810;9.150;2022-09-12T16:35:03;1.97;;;1.80;;
773;SDS011;370;48.810;9.150;2022-09-12T16:37:31;2.20;;;1.77;;
773;SDS011;370;48.810;9.150;2022-09-12T16:39:59;2.40;;;1.60;;
773;SDS011;370;48.810;9.150;2022-09-12T16:42:26;2.37;;;1.90;;